Time;durP1;ratioP1;P1;durP2;ratioP2;P2;SDS_P1;SDS_P2;PMS_P1;PMS_P2;Temp;Humidity;BMP_temperature;BMP_pressure;BME280_temperature;BME280_humidity;BME280_pressure;Samples;Min_cycle;Max_cycle;Signal;HPM_P1;HPM_P2
2022/05/04 00:01:48;;;;;;;6.20;4.60;;;14.80;38.60;;;;;;5094027;28;20203;-30
2022/05/04 00:04:13;;;;;;;8.23;4.93;;;14.70;38.40;;;;;;5094291;28;20183;-31
2022/05/04 00:06:39;;;;;;;7.10;5.27;;;14.70;38.50;;;;;;5094084;28;20208;-30
2022/05/04 00:09:05;;;;;;;16.67;10.43;;;14.70;38.60;;;;;;5094080;28;20617;-30
2022/05/04 00:11:30;;;;;;;26.63;13.40;;;14.70;38.00;;;;;;5093628;28;20296;-31
2022/05/04 00:13:56;;;;;;;22.93;10.60;;;14.70;38.50;;;;;;5094161;28;20635;-31
2022/05/04 00:16:22;;;;;;;17.10;10.77;;;14.60;38.40;;;;;;5094025;28;20187;-31
2022/05/04 00:18:48;;;;;;;11.90;7.70;;;14.50;38.60;;;;;;5093795;28;20229;-30
2022/05/04 00:21:14;;;;;;;16.40;8.60;;;14.50;38.60;;;;;;5093508;28;20487;-30
2022/05/04 00:23:40;;;;;;;14.30;7.73;;;14.50;38.40;;;;;;5093704;28;20563;-30
2022/05/04 00:26:06;;;;;;;14.70;7.38;;;14.50;38.70;;;;;;5093538;28;20200;-30
2022/05/04 00:28:31;;;;;;;11.40;7.10;;;14.40;38.00;;;;;;5093090;28;20381;-31
2022/05/04 00:30:57;;;;;;;16.63;7.50;;;14.40;37.80;;;;;;5093238;28;20199;-31
2022/05/04 00:33:23;;;;;;;12.83;7.53;;;14.40;37.90;;;;;;5093673;28;20168;-30
2022/05/04 00:35:49;;;;;;;8.67;6.47;;;14.40;38.30;;;;;;5093559;28;20517;-30
2022/05/04 00:38:14;;;;;;;9.40;6.30;;;14.30;38.50;;;;;;5093471;28;20406;-30
2022/05/04 00:40:40;;;;;;;9.77;6.73;;;14.30;38.90;;;;;;5092987;28;20196;-31
2022/05/04 00:43:22;;;;;;;9.50;6.07;;;14.20;38.90;;;;;;5093385;28;20266;-30
2022/05/04 00:45:48;;;;;;;8.15;6.45;;;14.20;38.70;;;;;;5093459;28;20207;-31
2022/05/04 00:48:15;;;;;;;9.55;6.40;;;14.20;38.80;;;;;;5093416;28;20176;-31
2022/05/04 00:50:42;;;;;;;13.98;5.60;;;14.10;38.90;;;;;;5093192;28;20200;-30
2022/05/04 00:53:08;;;;;;;6.90;6.13;;;14.10;38.70;;;;;;5093534;28;20643;-31
2022/05/04 00:55:34;;;;;;;8.77;5.25;;;14.10;39.00;;;;;;5093955;28;20274;-30
2022/05/04 01:00:48;;;;;;;6.53;5.55;;;14.00;39.20;;;;;;5093079;28;20712;-30
2022/05/04 01:03:14;;;;;;;10.93;6.13;;;13.90;39.00;;;;;;5093059;28;20263;-30
2022/05/04 01:05:40;;;;;;;7.35;6.18;;;13.90;39.00;;;;;;5092715;28;20639;-30
2022/05/04 01:08:06;;;;;;;7.00;5.30;;;13.90;39.00;;;;;;5093172;28;20185;-30
2022/05/04 01:10:31;;;;;;;8.40;7.07;;;13.90;39.30;;;;;;5092736;28;20563;-31
2022/05/04 01:12:57;;;;;;;8.50;5.30;;;13.80;39.40;;;;;;5092977;28;20182;-30
2022/05/04 01:15:24;;;;;;;5.97;4.57;;;13.80;39.40;;;;;;5092947;28;20261;-30
2022/05/04 01:17:50;;;;;;;6.35;5.32;;;13.80;39.10;;;;;;5092892;28;20410;-31
2022/05/04 01:20:16;;;;;;;9.20;5.20;;;13.80;38.90;;;;;;5092363;28;20535;-31
2022/05/04 01:22:42;;;;;;;6.93;5.75;;;14.40;39.40;;;;;;5092626;28;20168;-30
2022/05/04 01:25:10;;;;;;;8.40;5.33;;;13.70;39.30;;;;;;5092800;28;20183;-30
2022/05/04 01:27:36;;;;;;;7.97;5.45;;;13.60;39.40;;;;;;5092563;28;20445;-30
2022/05/04 01:30:02;;;;;;;15.20;4.90;;;13.60;39.50;;;;;;5092520;28;20233;-30
2022/05/04 01:32:28;;;;;;;7.53;5.45;;;13.60;39.60;;;;;;5092615;28;20710;-30
2022/05/04 01:34:53;;;;;;;7.30;4.50;;;13.60;40.50;;;;;;5092377;28;20313;-30
2022/05/04 01:37:19;;;;;;;5.90;4.50;;;13.60;39.60;;;;;;5092438;28;20171;-30
2022/05/04 01:39:45;;;;;;;9.37;5.50;;;13.50;39.70;;;;;;5091666;28;20199;-30
2022/05/04 01:42:13;;;;;;;5.80;4.90;;;13.50;39.50;;;;;;5092213;28;20290;-30
2022/05/04 01:44:41;;;;;;;7.65;5.20;;;13.50;39.60;;;;;;5092475;28;20183;-30
2022/05/04 01:47:07;;;;;;;7.55;5.07;;;13.50;39.50;;;;;;5092277;28;20203;-30
2022/05/04 01:49:33;;;;;;;6.45;5.18;;;13.50;39.80;;;;;;5092244;28;20255;-30
2022/05/04 01:51:59;;;;;;;6.00;4.77;;;13.40;39.80;;;;;;5092064;28;20278;-30
2022/05/04 01:54:26;;;;;;;8.13;5.40;;;13.40;39.70;;;;;;5092349;28;20396;-30
2022/05/04 01:56:52;;;;;;;10.35;6.05;;;13.40;39.60;;;;;;5092217;28;20176;-30
2022/05/04 01:59:18;;;;;;;8.75;5.00;;;13.30;39.60;;;;;;5092278;28;20179;-30
2022/05/04 02:01:44;;;;;;;8.13;5.53;;;13.20;39.60;;;;;;5091893;28;20191;-30
2022/05/04 02:04:10;;;;;;;7.78;5.85;;;13.20;39.60;;;;;;5090808;28;20647;-30
2022/05/04 02:06:37;;;;;;;7.77;5.00;;;13.20;39.80;;;;;;5092246;28;20207;-30
2022/05/04 02:09:04;;;;;;;7.40;4.60;;;13.10;39.90;;;;;;5092003;28;20413;-30
2022/05/04 02:11:32;;;;;;;6.53;4.70;;;13.10;40.10;;;;;;5091791;28;20188;-30
2022/05/04 02:13:59;;;;;;;6.32;5.57;;;13.10;40.40;;;;;;5092110;28;20171;-30
2022/05/04 02:16:24;;;;;;;6.55;5.28;;;13.10;40.10;;;;;;5092086;28;20202;-30
2022/05/04 02:18:50;;;;;;;6.23;4.80;;;13.10;40.60;;;;;;5091896;28;20340;-30
2022/05/04 02:21:16;;;;;;;5.40;4.70;;;13.00;40.10;;;;;;5091682;28;20214;-30
2022/05/04 02:23:42;;;;;;;6.80;4.88;;;13.00;40.10;;;;;;5092060;28;20175;-30
2022/05/04 02:26:08;;;;;;;8.68;5.72;;;13.10;40.10;;;;;;5105348;22;20273;-32
2022/05/04 02:28:34;;;;;;;7.25;5.25;;;13.00;40.50;;;;;;5092065;28;20171;-32
2022/05/04 02:31:00;;;;;;;7.07;4.90;;;13.00;40.40;;;;;;5092041;28;20175;-32
2022/05/04 02:33:26;;;;;;;10.30;5.07;;;13.00;40.40;;;;;;5092058;28;20172;-32
2022/05/04 02:38:36;;;;;;;8.25;6.18;;;13.00;40.60;;;;;;5091867;28;20401;-32
2022/05/04 02:41:02;;;;;;;10.10;5.67;;;12.90;40.60;;;;;;5091600;28;20176;-32
2022/05/04 02:43:28;;;;;;;7.77;4.33;;;12.90;40.60;;;;;;5091787;28;20192;-33
2022/05/04 02:45:54;;;;;;;7.85;5.80;;;12.90;40.60;;;;;;5091592;28;20446;-34
2022/05/04 02:48:20;;;;;;;6.47;4.90;;;12.90;40.50;;;;;;5091778;28;20214;-34
2022/05/04 02:50:46;;;;;;;10.07;5.23;;;12.90;40.60;;;;;;5091457;28;20200;-34
2022/05/04 02:53:12;;;;;;;7.63;5.10;;;12.80;40.90;;;;;;5095606;28;20789;-34
2022/05/04 02:55:38;;;;;;;6.30;5.17;;;12.80;41.00;;;;;;5095462;28;20629;-34
2022/05/04 02:58:04;;;;;;;7.03;4.97;;;12.80;40.90;;;;;;5095456;28;20431;-34
2022/05/04 03:00:29;;;;;;;7.18;4.25;;;12.80;40.60;;;;;;5095243;28;20168;-34
2022/05/04 03:02:56;;;;;;;4.20;3.23;;;12.80;41.00;;;;;;5095354;28;20168;-34
2022/05/04 03:05:22;;;;;;;4.32;3.53;;;12.80;41.10;;;;;;5095249;28;20172;-34
2022/05/04 03:07:48;;;;;;;7.72;5.15;;;12.70;40.90;;;;;;5095053;28;20206;-34
2022/05/04 03:10:14;;;;;;;10.97;4.90;;;12.70;41.50;;;;;;5095400;28;20164;-34
2022/05/04 03:12:40;;;;;;;4.90;3.97;;;12.70;41.20;;;;;;5095080;28;20639;-34
2022/05/04 03:15:07;;;;;;;4.85;3.90;;;12.70;41.00;;;;;;5095136;28;20523;-34
2022/05/04 03:17:33;;;;;;;4.75;4.22;;;12.80;41.00;;;;;;5094941;28;20685;-34
2022/05/04 03:20:00;;;;;;;6.70;5.07;;;12.70;41.30;;;;;;5094954;28;20180;-34
2022/05/04 03:22:25;;;;;;;7.88;4.97;;;12.70;41.00;;;;;;5094910;28;20184;-34
2022/05/04 03:24:52;;;;;;;5.00;3.87;;;12.70;41.00;;;;;;5095156;28;20190;-34
2022/05/04 03:27:17;;;;;;;7.93;4.85;;;12.70;41.30;;;;;;5094638;28;20457;-34
2022/05/04 03:29:43;;;;;;;5.33;4.00;;;12.70;41.40;;;;;;5094850;28;20172;-34
2022/05/04 03:32:09;;;;;;;6.00;3.83;;;12.70;42.20;;;;;;5094563;28;20196;-34
2022/05/04 03:34:35;;;;;;;5.72;4.30;;;12.70;41.20;;;;;;5094712;28;20168;-34
2022/05/04 03:37:02;;;;;;;6.15;4.05;;;12.70;41.30;;;;;;5094642;28;20200;-34
2022/05/04 03:39:28;;;;;;;8.90;4.35;;;12.70;41.30;;;;;;5094632;28;20168;-34
2022/05/04 03:41:54;;;;;;;8.45;4.40;;;12.70;41.40;;;;;;5094475;28;20172;-34
2022/05/04 03:44:19;;;;;;;6.53;5.07;;;12.70;41.20;;;;;;5094484;28;20640;-34
2022/05/04 03:46:47;;;;;;;6.57;5.37;;;12.70;41.30;;;;;;5094251;28;20203;-34
2022/05/04 03:49:17;;;;;;;7.93;5.03;;;12.70;42.10;;;;;;5094390;28;20179;-34
2022/05/04 03:51:43;;;;;;;7.53;5.05;;;12.60;41.20;;;;;;5094546;28;20543;-34
2022/05/04 03:54:09;;;;;;;8.93;5.10;;;12.60;41.40;;;;;;5094389;28;20171;-34
2022/05/04 03:56:36;;;;;;;7.63;4.97;;;12.60;41.50;;;;;;5094265;28;20188;-34
2022/05/04 03:59:03;;;;;;;8.60;6.28;;;12.50;41.50;;;;;;5094297;28;20681;-34
2022/05/04 04:01:29;;;;;;;6.13;4.85;;;12.50;41.50;;;;;;5093885;28;20180;-34
2022/05/04 04:03:55;;;;;;;11.57;3.97;;;12.50;41.70;;;;;;5093182;28;20194;-34
2022/05/04 04:06:21;;;;;;;8.60;4.40;;;12.50;41.70;;;;;;5094074;28;20560;-34
2022/05/04 04:08:47;;;;;;;6.22;4.43;;;12.50;41.70;;;;;;5094114;28;20164;-34
2022/05/04 04:11:13;;;;;;;6.68;5.68;;;12.40;41.60;;;;;;5093853;28;20176;-34
2022/05/04 04:13:39;;;;;;;7.90;4.70;;;12.50;41.80;;;;;;5094032;28;20508;-34
2022/05/04 04:16:05;;;;;;;9.65;4.53;;;12.50;41.90;;;;;;5093708;28;20191;-34
2022/05/04 04:18:31;;;;;;;5.47;4.97;;;12.50;41.80;;;;;;5093776;28;20175;-34
2022/05/04 04:23:41;;;;;;;5.38;4.03;;;12.50;41.80;;;;;;5093913;28;20584;-34
2022/05/04 04:26:08;;;;;;;6.28;4.65;;;12.60;41.90;;;;;;5093471;28;20208;-34
2022/05/04 04:28:35;;;;;;;6.05;4.40;;;12.60;42.10;;;;;;5094029;28;20171;-34
2022/05/04 04:31:01;;;;;;;8.85;5.47;;;12.60;42.10;;;;;;5093536;28;20175;-34
2022/05/04 04:33:29;;;;;;;6.03;4.65;;;12.70;42.20;;;;;;5093448;28;20632;-34
2022/05/04 04:35:55;;;;;;;9.30;5.32;;;12.80;42.60;;;;;;5093572;28;20668;-33
2022/05/04 04:38:21;;;;;;;7.20;6.03;;;12.80;42.40;;;;;;5093553;28;20180;-34
2022/05/04 04:40:47;;;;;;;8.25;6.10;;;13.70;42.70;;;;;;5093202;28;20184;-34
2022/05/04 04:43:14;;;;;;;8.10;5.17;;;12.90;42.30;;;;;;5093435;28;20172;-34
2022/05/04 04:45:40;;;;;;;6.18;4.70;;;13.10;42.40;;;;;;5093380;28;20405;-34
2022/05/04 04:48:06;;;;;;;7.07;6.00;;;13.10;42.30;;;;;;5093320;28;20176;-34
2022/05/04 04:50:32;;;;;;;11.73;6.10;;;13.20;42.30;;;;;;5093012;28;20168;-34
2022/05/04 04:52:58;;;;;;;6.13;4.57;;;13.30;42.30;;;;;;5093178;28;20402;-34
2022/05/04 04:55:23;;;;;;;8.23;6.23;;;13.40;42.30;;;;;;5092997;28;20180;-34
2022/05/04 04:57:49;;;;;;;6.50;5.20;;;13.50;42.10;;;;;;5093015;28;20172;-34
2022/05/04 05:00:15;;;;;;;6.40;5.60;;;13.60;42.10;;;;;;5093067;28;20206;-34
2022/05/04 05:02:41;;;;;;;8.60;5.72;;;13.70;41.70;;;;;;5092994;28;20176;-34
2022/05/04 05:05:07;;;;;;;7.03;4.70;;;13.80;42.20;;;;;;5093026;28;20289;-34
2022/05/04 05:07:33;;;;;;;10.20;6.35;;;13.80;41.70;;;;;;5092860;28;20575;-34
2022/05/04 05:09:59;;;;;;;7.80;5.07;;;14.00;41.80;;;;;;5092971;28;20179;-34
2022/05/04 05:12:24;;;;;;;8.77;5.30;;;14.00;41.50;;;;;;5092496;28;20573;-33
2022/05/04 05:17:35;;;;;;;9.05;6.00;;;14.20;41.20;;;;;;5092764;28;20199;-34
2022/05/04 05:20:05;;;;;;;7.65;5.47;;;14.40;41.10;;;;;;5092772;28;20207;-32
2022/05/04 05:22:31;;;;;;;7.88;5.18;;;14.50;41.00;;;;;;5092484;28;20244;-31
2022/05/04 05:24:57;;;;;;;8.70;6.22;;;14.50;40.80;;;;;;5093255;28;20182;-31
2022/05/04 05:27:23;;;;;;;14.93;6.83;;;14.60;40.60;;;;;;5092285;28;20211;-32
2022/05/04 05:29:49;;;;;;;9.10;5.77;;;14.70;40.60;;;;;;5092769;28;20178;-31
2022/05/04 05:32:14;;;;;;;9.13;6.20;;;14.70;40.50;;;;;;5092334;28;20410;-32
2022/05/04 05:34:40;;;;;;;11.07;6.13;;;14.80;40.50;;;;;;5092445;28;20175;-32
2022/05/04 05:37:06;;;;;;;9.67;5.50;;;14.90;40.70;;;;;;5092363;28;20768;-33
2022/05/04 05:39:32;;;;;;;8.00;5.63;;;14.90;40.50;;;;;;5092268;28;20445;-33
2022/05/04 05:41:58;;;;;;;8.43;5.60;;;15.00;40.30;;;;;;5092193;28;20196;-34
2022/05/04 05:44:24;;;;;;;8.25;4.90;;;15.10;40.30;;;;;;5092424;28;20599;-34
2022/05/04 05:46:50;;;;;;;8.60;6.47;;;15.20;40.00;;;;;;5092099;28;20231;-34
2022/05/04 05:49:15;;;;;;;8.57;6.37;;;15.30;39.80;;;;;;5092144;28;20582;-34
2022/05/04 05:51:42;;;;;;;8.80;6.70;;;15.40;39.60;;;;;;5092076;28;20172;-34
2022/05/04 05:54:08;;;;;;;7.00;6.30;;;15.50;39.70;;;;;;5092164;28;20171;-34
2022/05/04 05:56:34;;;;;;;11.38;6.38;;;15.60;39.70;;;;;;5092051;28;20199;-34
2022/05/04 05:59:00;;;;;;;14.50;7.43;;;15.70;39.50;;;;;;5092299;28;20183;-33
2022/05/04 06:01:26;;;;;;;7.10;5.40;;;15.90;39.50;;;;;;5091918;28;20168;-33
2022/05/04 06:03:52;;;;;;;5.72;4.60;;;16.00;39.30;;;;;;5091990;28;20175;-34
2022/05/04 06:06:19;;;;;;;7.97;6.30;;;16.20;39.10;;;;;;5091936;28;20236;-34
2022/05/04 06:08:44;;;;;;;10.45;6.03;;;16.30;38.80;;;;;;5092247;28;20410;-34
2022/05/04 06:11:10;;;;;;;8.30;5.90;;;16.40;38.50;;;;;;5092065;28;20233;-34
2022/05/04 06:13:36;;;;;;;12.80;7.57;;;16.50;38.50;;;;;;5092055;28;20226;-34
2022/05/04 06:16:01;;;;;;;9.37;6.27;;;16.60;38.50;;;;;;5091882;28;20194;-34
2022/05/04 06:18:27;;;;;;;8.20;5.47;;;16.70;38.10;;;;;;5091945;28;20168;-33
2022/05/04 06:20:53;;;;;;;7.40;6.00;;;16.80;38.10;;;;;;5091756;28;20175;-33
2022/05/04 06:23:19;;;;;;;13.37;5.97;;;16.90;38.10;;;;;;5091887;28;20706;-34
2022/05/04 06:25:45;;;;;;;9.30;6.17;;;17.10;37.90;;;;;;5091892;28;20206;-34
2022/05/04 06:28:12;;;;;;;9.60;6.72;;;17.20;37.90;;;;;;5096264;28;20428;-33
2022/05/04 06:36:07;;;;;;;9.05;5.57;;;17.40;36.80;;;;;;5095764;28;20245;-34
2022/05/04 06:38:33;;;;;;;6.63;6.00;;;17.50;36.80;;;;;;5095796;28;20175;-34
2022/05/04 06:41:00;;;;;;;9.83;6.63;;;17.60;37.00;;;;;;5095614;28;20263;-34
2022/05/04 06:43:25;;;;;;;10.25;7.28;;;17.70;36.60;;;;;;5095638;28;20174;-34
2022/05/04 06:45:51;;;;;;;10.40;5.93;;;17.90;36.80;;;;;;5095537;28;20241;-34
2022/05/04 06:48:17;;;;;;;8.70;6.57;;;18.00;36.60;;;;;;5095557;28;20164;-34
2022/05/04 06:50:43;;;;;;;9.00;6.80;;;18.00;35.70;;;;;;5095328;28;20440;-34
2022/05/04 06:53:08;;;;;;;8.67;6.27;;;18.10;35.90;;;;;;5095528;28;20206;-34
2022/05/04 06:55:34;;;;;;;8.70;5.93;;;18.20;35.00;;;;;;5095379;28;20175;-34
2022/05/04 06:57:59;;;;;;;8.63;6.30;;;18.30;35.50;;;;;;5095415;28;20167;-34
2022/05/04 07:00:25;;;;;;;8.27;6.67;;;18.40;36.00;;;;;;5095179;28;20538;-34
2022/05/04 07:02:51;;;;;;;8.60;6.90;;;18.50;36.00;;;;;;5095211;28;20225;-34
2022/05/04 07:05:17;;;;;;;6.57;5.37;;;18.60;35.40;;;;;;5095327;28;20175;-34
2022/05/04 07:07:43;;;;;;;7.87;5.87;;;18.60;35.10;;;;;;5095124;28;20200;-34
2022/05/04 07:10:09;;;;;;;8.23;5.83;;;18.70;35.10;;;;;;5095304;28;20850;-34
2022/05/04 07:12:35;;;;;;;7.95;6.35;;;18.60;33.90;;;;;;5094953;28;20404;-34
2022/05/04 07:15:00;;;;;;;7.73;5.30;;;18.50;34.30;;;;;;5095103;28;20168;-34
2022/05/04 07:17:27;;;;;;;7.57;6.47;;;18.60;35.40;;;;;;5094909;28;20195;-34
2022/05/04 07:19:53;;;;;;;7.20;5.38;;;18.60;35.20;;;;;;5095016;28;20651;-34
2022/05/04 07:22:21;;;;;;;11.30;7.32;;;18.80;35.60;;;;;;5094663;28;20172;-34
2022/05/04 07:24:47;;;;;;;7.13;5.78;;;19.00;35.20;;;;;;5095019;28;20205;-34
2022/05/04 07:27:12;;;;;;;7.60;5.57;;;18.90;34.30;;;;;;5094625;28;20261;-34
2022/05/04 07:29:38;;;;;;;7.13;5.17;;;19.00;34.70;;;;;;5094780;28;20164;-34
2022/05/04 07:32:04;;;;;;;8.73;5.90;;;19.10;35.10;;;;;;5094484;28;20238;-34
2022/05/04 07:34:30;;;;;;;8.77;5.38;;;19.20;34.20;;;;;;5094739;28;20394;-34
2022/05/04 07:36:59;;;;;;;7.83;6.63;;;19.30;33.50;;;;;;5094654;28;20196;-34
2022/05/04 07:42:27;;;;;;;10.52;7.25;;;19.60;34.20;;;;;;5094398;28;20492;-34
2022/05/04 07:45:08;;;;;;;10.45;6.25;;;19.80;33.70;;;;;;5094572;28;20168;-34
2022/05/04 07:47:35;;;;;;;6.80;5.70;;;20.00;34.00;;;;;;5094584;28;20214;-34
2022/05/04 07:50:03;;;;;;;8.00;5.88;;;20.20;34.10;;;;;;5094386;28;20497;-34
2022/05/04 07:52:29;;;;;;;7.88;6.05;;;20.40;33.50;;;;;;5094145;28;20176;-34
2022/05/04 07:54:55;;;;;;;16.47;6.37;;;20.50;31.70;;;;;;5094243;28;20179;-34
2022/05/04 07:57:21;;;;;;;9.93;5.20;;;20.50;30.40;;;;;;5094196;28;20291;-34
2022/05/04 08:04:16;;;;;;;11.63;5.20;;;20.40;30.50;;;;;;5094215;28;20489;-34
2022/05/04 08:05:20;;;;;;;9.82;5.90;;;20.30;30.50;;;;;;5094269;28;20182;-34
2022/05/04 08:07:45;;;;;;;9.13;4.90;;;20.40;31.90;;;;;;5094043;28;20208;-34
2022/05/04 08:10:11;;;;;;;8.00;5.30;;;20.50;30.50;;;;;;5094237;28;20414;-34
2022/05/04 08:12:37;;;;;;;7.47;4.77;;;20.70;30.70;;;;;;5093928;28;20255;-34
2022/05/04 08:15:03;;;;;;;5.40;4.37;;;20.80;30.80;;;;;;5093961;28;20661;-34
2022/05/04 08:17:29;;;;;;;6.15;4.75;;;21.00;31.40;;;;;;5093847;28;20196;-34
2022/05/04 08:19:54;;;;;;;6.30;5.10;;;21.20;28.90;;;;;;5093714;28;20179;-34
2022/05/04 08:22:20;;;;;;;6.17;4.83;;;21.40;30.20;;;;;;5093659;28;20202;-34
2022/05/04 08:24:46;;;;;;;5.03;3.97;;;21.50;29.10;;;;;;5093712;28;20175;-34
2022/05/04 08:27:11;;;;;;;5.20;3.90;;;21.70;28.80;;;;;;5093564;28;20204;-34
2022/05/04 08:29:37;;;;;;;5.57;4.17;;;21.80;26.50;;;;;;5093664;28;20165;-34
2022/05/04 08:32:03;;;;;;;9.80;4.63;;;21.80;27.40;;;;;;5093424;28;20681;-34
2022/05/04 08:34:29;;;;;;;4.07;3.40;;;21.90;27.70;;;;;;5093558;28;20164;-34
2022/05/04 08:36:55;;;;;;;5.27;4.37;;;22.00;26.50;;;;;;5093514;28;20559;-34
2022/05/04 08:39:20;;;;;;;5.43;3.67;;;22.20;27.40;;;;;;5093685;28;20182;-35
2022/05/04 08:41:46;;;;;;;5.47;3.80;;;22.40;25.70;;;;;;5093828;28;20655;-34
2022/05/04 08:44:12;;;;;;;4.13;3.73;;;22.60;25.70;;;;;;5093114;28;20237;-34
2022/05/04 08:46:40;;;;;;;4.90;3.90;;;22.70;26.60;;;;;;5093323;28;20283;-34
2022/05/04 08:49:06;;;;;;;8.03;6.97;;;22.80;25.50;;;;;;5092827;28;20437;-34
2022/05/04 08:51:34;;;;;;;5.20;3.37;;;22.90;26.90;;;;;;5093315;28;20455;-35
2022/05/04 08:54:00;;;;;;;6.80;3.50;;;23.10;27.20;;;;;;5093255;28;20409;-35
2022/05/04 08:56:26;;;;;;;4.63;4.10;;;23.20;27.60;;;;;;5093133;28;20520;-34
2022/05/04 08:58:51;;;;;;;4.23;3.00;;;23.20;26.00;;;;;;5093105;28;20251;-34
2022/05/04 09:01:17;;;;;;;4.37;3.97;;;23.40;25.60;;;;;;5092818;28;20493;-34
2022/05/04 09:03:43;;;;;;;5.10;3.67;;;23.70;27.10;;;;;;5092967;28;20175;-34
2022/05/04 09:06:09;;;;;;;4.83;3.53;;;24.00;26.60;;;;;;5105270;22;20227;-35
2022/05/04 09:08:56;;;;;;;4.77;3.93;;;24.00;25.00;;;;;;5092886;28;20254;-35
2022/05/04 09:11:23;;;;;;;4.80;3.27;;;24.00;23.30;;;;;;5092850;28;20516;-35
2022/05/04 09:13:49;;;;;;;4.10;3.37;;;24.00;25.10;;;;;;5092900;28;20459;-35
2022/05/04 09:16:32;;;;;;;4.20;3.20;;;24.30;26.70;;;;;;5092657;28;20414;-35
2022/05/04 09:19:06;;;;;;;5.50;3.40;;;24.60;27.00;;;;;;5092755;28;20405;-35
2022/05/04 09:21:32;;;;;;;4.27;3.43;;;24.90;26.90;;;;;;5092706;28;20795;-34
2022/05/04 09:23:58;;;;;;;4.80;3.60;;;25.10;26.60;;;;;;5092757;28;20901;-35
2022/05/04 09:26:24;;;;;;;4.53;3.30;;;25.20;25.60;;;;;;5092525;28;20449;-34
2022/05/04 09:28:56;;;;;;;15.93;3.73;;;25.20;23.80;;;;;;5092610;28;20206;-35
2022/05/04 09:31:27;;;;;;;4.27;2.90;;;25.20;25.10;;;;;;5092336;28;20406;-35
2022/05/04 09:33:57;;;;;;;4.97;3.67;;;25.40;22.70;;;;;;5092440;28;20394;-35
2022/05/04 09:45:15;;;;;;;4.43;2.80;;;25.40;23.90;;;;;;5092612;28;20421;-35
2022/05/04 09:47:46;;;;;;;3.10;2.33;;;25.70;24.70;;;;;;5092276;28;20971;-35
2022/05/04 09:50:14;;;;;;;3.77;2.80;;;25.90;23.50;;;;;;5092455;28;20473;-35
2022/05/04 09:52:44;;;;;;;3.20;2.90;;;26.20;23.50;;;;;;5092264;28;20402;-35
2022/05/04 09:55:17;;;;;;;5.13;3.30;;;26.30;23.50;;;;;;5092204;28;20414;-35
2022/05/04 09:57:45;;;;;;;4.03;2.90;;;26.50;22.50;;;;;;5092266;28;20757;-35
2022/05/04 10:00:13;;;;;;;3.10;2.37;;;26.60;23.60;;;;;;5092019;28;20410;-35
2022/05/04 10:02:39;;;;;;;5.20;2.73;;;26.70;23.30;;;;;;5091146;28;20414;-35
2022/05/04 10:05:07;;;;;;;4.73;3.30;;;26.80;20.70;;;;;;5092058;28;20445;-35
2022/05/04 10:07:36;;;;;;;3.57;2.33;;;26.80;21.70;;;;;;5092006;28;20461;-35
2022/05/04 10:10:02;;;;;;;5.13;4.10;;;26.90;22.40;;;;;;5092223;28;20500;-35
2022/05/04 10:12:29;;;;;;;5.50;3.40;;;27.00;20.30;;;;;;5091823;28;20535;-35
2022/05/04 10:14:58;;;;;;;3.90;3.10;;;26.90;21.60;;;;;;5091927;28;20918;-35
2022/05/04 10:17:28;;;;;;;4.40;3.13;;;27.00;21.20;;;;;;5092054;28;20421;-35
2022/05/04 10:19:56;;;;;;;3.43;2.80;;;27.10;21.60;;;;;;5091975;28;20497;-35
2022/05/04 10:22:33;;;;;;;2.70;2.40;;;27.10;21.20;;;;;;5091765;28;20882;-35
2022/05/04 10:25:01;;;;;;;4.33;3.50;;;27.10;20.30;;;;;;5091943;28;20516;-35
2022/05/04 10:27:28;;;;;;;5.13;3.70;;;27.00;21.00;;;;;;5091782;28;20456;-34
2022/05/04 10:33:11;;;;;;;3.73;3.00;;;27.20;21.50;;;;;;5049222;28;20519;-35
2022/05/04 10:35:48;;;;;;;4.90;3.90;;;27.30;20.30;;;;;;5049196;28;21006;-35
2022/05/04 10:38:26;;;;;;;4.27;2.80;;;27.50;20.40;;;;;;5049115;28;20293;-35
2022/05/04 10:40:59;;;;;;;5.03;3.37;;;27.60;20.00;;;;;;5048917;28;20854;-35
2022/05/04 10:43:36;;;;;;;3.80;2.90;;;27.60;20.70;;;;;;5049189;28;20408;-35
2022/05/04 10:46:20;;;;;;;3.90;3.00;;;27.80;21.50;;;;;;5048964;28;20430;-35
2022/05/04 10:48:57;;;;;;;5.80;3.10;;;28.10;22.00;;;;;;5049199;28;20420;-35
2022/05/04 10:51:26;;;;;;;5.47;3.87;;;28.30;21.60;;;;;;5048822;28;20412;-35
2022/05/04 10:53:58;;;;;;;3.47;3.13;;;28.50;21.40;;;;;;5049111;28;20404;-35
2022/05/04 10:56:34;;;;;;;2.70;2.50;;;28.70;21.90;;;;;;5048942;28;20826;-35
2022/05/04 10:59:00;;;;;;;3.90;2.27;;;28.90;21.30;;;;;;5049014;28;20411;-35
2022/05/04 11:01:31;;;;;;;3.67;2.90;;;29.00;21.50;;;;;;5048838;28;20813;-35
2022/05/04 11:04:15;;;;;;;3.17;2.20;;;29.10;21.30;;;;;;5070250;28;20194;-35
2022/05/04 11:06:55;;;;;;;3.97;2.40;;;29.20;21.60;;;;;;5091596;28;20452;-35
2022/05/04 11:09:29;;;;;;;5.13;2.60;;;29.30;21.00;;;;;;5091416;28;20414;-35
2022/05/04 11:11:56;;;;;;;2.80;2.20;;;29.50;21.70;;;;;;5091509;28;20398;-35
2022/05/04 11:14:23;;;;;;;4.00;2.73;;;29.50;21.30;;;;;;5095143;28;20425;-35
2022/05/04 11:16:51;;;;;;;3.83;2.43;;;29.70;21.00;;;;;;5095152;28;20471;-35
2022/05/04 11:19:17;;;;;;;5.07;3.37;;;29.80;20.90;;;;;;5095108;28;20402;-34
2022/05/04 11:21:44;;;;;;;10.00;3.00;;;29.80;19.60;;;;;;5094729;28;20411;-34
2022/05/04 11:24:12;;;;;;;5.00;2.20;;;29.50;19.60;;;;;;5095112;28;20402;-35
2022/05/04 11:26:40;;;;;;;3.87;2.70;;;29.30;20.20;;;;;;5094793;28;20686;-34
2022/05/04 11:29:09;;;;;;;2.90;2.53;;;29.10;20.00;;;;;;5094902;28;20436;-34
2022/05/04 11:31:35;;;;;;;3.63;3.20;;;29.00;20.50;;;;;;5094719;28;20406;-34
2022/05/04 11:34:01;;;;;;;7.60;3.03;;;29.00;20.60;;;;;;5095160;28;20402;-35
2022/05/04 11:36:28;;;;;;;4.03;2.40;;;29.00;20.30;;;;;;5094701;28;20414;-35
2022/05/04 11:38:53;;;;;;;7.43;3.53;;;29.10;20.60;;;;;;5094905;28;20421;-35
2022/05/04 11:41:20;;;;;;;3.50;2.43;;;29.20;20.50;;;;;;5094403;28;20410;-35
2022/05/04 11:43:49;;;;;;;4.90;2.43;;;29.10;20.10;;;;;;5094627;28;20186;-35
2022/05/04 11:46:16;;;;;;;3.13;2.73;;;29.00;20.20;;;;;;5094450;28;20473;-35
2022/05/04 11:48:44;;;;;;;4.80;3.00;;;28.70;19.20;;;;;;5094434;28;20414;-35
2022/05/04 11:51:12;;;;;;;3.40;2.70;;;28.50;20.10;;;;;;5094165;28;20975;-35
2022/05/04 11:53:38;;;;;;;2.73;2.30;;;28.40;19.20;;;;;;5094437;28;20850;-35
2022/05/04 11:56:06;;;;;;;3.00;2.30;;;28.30;19.10;;;;;;5094312;28;20839;-35
2022/05/04 11:58:35;;;;;;;4.00;2.60;;;28.20;19.40;;;;;;5094259;28;20406;-35
2022/05/04 12:01:03;;;;;;;3.77;3.00;;;28.30;20.00;;;;;;5094025;28;20417;-35
2022/05/04 12:03:31;;;;;;;4.00;2.90;;;28.40;19.20;;;;;;5094076;28;20410;-35
2022/05/04 12:05:59;;;;;;;3.07;2.60;;;28.50;18.60;;;;;;5093994;28;20445;-35
2022/05/04 12:08:25;;;;;;;3.53;2.67;;;28.50;19.10;;;;;;5093964;28;20739;-35
2022/05/04 12:10:51;;;;;;;3.20;2.47;;;28.40;18.90;;;;;;5093829;28;20406;-35
2022/05/04 12:13:25;;;;;;;3.10;2.40;;;28.30;19.90;;;;;;5093997;28;20521;-35
2022/05/04 12:15:54;;;;;;;3.67;2.40;;;28.50;20.20;;;;;;5093791;28;20605;-35
2022/05/04 12:18:21;;;;;;;5.90;3.00;;;28.70;20.50;;;;;;5093880;28;20406;-35
2022/05/04 12:20:47;;;;;;;4.97;3.10;;;29.10;20.40;;;;;;5093832;28;20410;-35
2022/05/04 12:23:14;;;;;;;3.30;2.80;;;29.30;19.10;;;;;;5093924;28;20440;-34
2022/05/04 12:25:41;;;;;;;3.67;3.00;;;29.50;19.30;;;;;;5092912;28;20426;-35
2022/05/04 12:28:08;;;;;;;4.03;2.63;;;29.60;18.40;;;;;;5093603;28;20500;-35
2022/05/04 12:33:33;;;;;;;5.87;2.63;;;29.60;18.10;;;;;;5093929;28;20754;-35
2022/05/04 12:36:08;;;;;;;3.30;3.00;;;29.50;19.20;;;;;;5093476;28;20451;-35
2022/05/04 12:38:35;;;;;;;3.77;2.87;;;29.70;19.30;;;;;;5093489;28;20409;-35
2022/05/04 12:41:06;;;;;;;12.80;3.00;;;29.80;18.80;;;;;;5093756;28;20437;-35
2022/05/04 12:43:37;;;;;;;5.10;3.30;;;29.90;18.10;;;;;;5093388;28;21047;-35
2022/05/04 12:46:07;;;;;;;2.50;2.30;;;30.00;19.80;;;;;;5093209;28;20935;-35
2022/05/04 12:48:35;;;;;;;5.63;2.67;;;30.10;19.70;;;;;;5093330;28;20402;-35
2022/05/04 12:51:01;;;;;;;3.93;2.40;;;30.30;19.80;;;;;;5093066;28;20442;-35
2022/05/04 12:53:27;;;;;;;3.03;2.60;;;30.40;19.30;;;;;;5093156;28;20921;-35
2022/05/04 12:58:38;;;;;;;3.53;3.20;;;30.40;19.30;;;;;;5093740;28;20167;-35
2022/05/04 13:01:04;;;;;;;3.60;2.40;;;30.40;19.40;;;;;;5092917;28;20411;-35
2022/05/04 13:03:31;;;;;;;4.23;2.60;;;30.30;19.20;;;;;;5092976;28;20405;-35
2022/05/04 13:05:57;;;;;;;3.30;2.97;;;30.20;19.20;;;;;;5092513;28;20562;-35
2022/05/04 13:08:23;;;;;;;3.50;2.83;;;30.20;19.30;;;;;;5092913;28;20492;-34
2022/05/04 13:10:49;;;;;;;3.80;3.40;;;30.20;19.60;;;;;;5092924;28;20294;-35
2022/05/04 13:13:19;;;;;;;3.10;2.80;;;30.30;19.90;;;;;;5092955;28;20492;-35
2022/05/04 13:15:47;;;;;;;3.33;2.40;;;30.40;19.60;;;;;;5092821;28;20421;-35
2022/05/04 13:18:13;;;;;;;3.20;2.70;;;30.50;19.30;;;;;;5092611;28;20931;-35
2022/05/04 13:20:39;;;;;;;3.23;2.77;;;30.50;19.20;;;;;;5092503;28;20406;-35
2022/05/04 13:23:07;;;;;;;4.00;2.60;;;30.50;19.80;;;;;;5092788;28;20417;-35
2022/05/04 13:25:33;;;;;;;3.03;2.60;;;30.40;19.10;;;;;;5092604;28;20426;-35